Time;durP1;ratioP1;P1;durP2;ratioP2;P2;SDS_P1;SDS_P2;PMS_P1;PMS_P2;Temp;Humidity;BMP_temperature;BMP_pressure;BME280_temperature;BME280_humidity;BME280_pressure;Samples;Min_cycle;Max_cycle;Signal;HPM_P1;HPM_P2
2023/08/02 00:01:59;;;;;;;;;;;;;;;15.10;100.00;100137.66;5061779;28;20120;-50
2023/08/02 00:04:25;;;;;;;;;;;;;;;15.05;100.00;100131.66;5062887;28;19927;-47
2023/08/02 00:06:50;;;;;;;;;;;;;;;15.01;100.00;100119.59;5059336;28;19978;-48
2023/08/02 00:09:15;;;;;;;;;;;;;;;14.97;100.00;100121.31;5062735;27;19927;-52
2023/08/02 00:11:40;;;;;;;;;;;;;;;14.95;100.00;100122.19;5058369;28;20077;-53
2023/08/02 00:14:06;;;;;;;;;;;;;;;14.92;100.00;100125.63;5055091;28;20382;-52
2023/08/02 00:16:32;;;;;;;;;;;;;;;14.88;100.00;100139.44;5059020;28;19924;-51
2023/08/02 00:18:57;;;;;;;;;;;;;;;14.83;100.00;100145.50;5059990;28;19920;-51
2023/08/02 00:21:22;;;;;;;;;;;;;;;14.81;100.00;100142.06;5059573;28;19929;-51
2023/08/02 00:23:48;;;;;;;;;;;;;;;14.82;100.00;100142.03;5054913;28;20401;-48
2023/08/02 00:26:13;;;;;;;;;;;;;;;14.75;100.00;100137.75;5059745;28;20321;-48
2023/08/02 00:28:38;;;;;;;;;;;;;;;14.72;100.00;100135.13;5057014;27;19970;-51
2023/08/02 00:31:03;;;;;;;;;;;;;;;14.69;100.00;100136.03;5059727;28;20153;-48
2023/08/02 00:33:29;;;;;;;;;;;;;;;14.67;100.00;100132.53;5061925;28;20297;-48
2023/08/02 00:35:54;;;;;;;;;;;;;;;14.64;100.00;100140.31;5058838;28;20031;-49
2023/08/02 00:38:21;;;;;;;;;;;;;;;14.62;100.00;100131.72;5059113;27;19920;-48
2023/08/02 00:40:46;;;;;;;;;;;;;;;14.58;100.00;100118.78;5060936;28;19931;-51
2023/08/02 00:43:11;;;;;;;;;;;;;;;14.53;100.00;100113.59;5062023;27;20261;-50
2023/08/02 00:45:36;;;;;;;;;;;;;;;14.52;100.00;100103.25;5065737;28;20015;-49
2023/08/02 00:48:02;;;;;;;;;;;;;;;14.48;100.00;100108.41;5064710;28;19963;-48
2023/08/02 00:50:28;;;;;;;;;;;;;;;14.45;100.00;100108.38;5065499;28;19917;-48
2023/08/02 00:52:54;;;;;;;;;;;;;;;14.43;100.00;100104.91;5062449;27;20378;-51
2023/08/02 00:55:20;;;;;;;;;;;;;;;14.41;100.00;100098.91;5063335;28;19965;-48
2023/08/02 00:57:45;;;;;;;;;;;;;;;14.41;100.00;100090.28;5057143;28;19928;-50
2023/08/02 01:00:10;;;;;;;;;;;;;;;14.41;100.00;100078.19;5063788;28;19931;-49
2023/08/02 01:02:36;;;;;;;;;;;;;;;14.43;100.00;100084.22;5046519;28;19920;-48
2023/08/02 01:05:02;;;;;;;;;;;;;;;14.44;100.00;100080.81;5063292;28;20400;-49
2023/08/02 01:07:30;;;;;;;;;;;;;;;14.47;100.00;100085.13;5062441;28;19917;-46
2023/08/02 01:10:04;;;;;;;;;;;;;;;14.52;100.00;100088.59;5065660;27;19941;-48
2023/08/02 01:12:31;;;;;;;;;;;;;;;14.57;100.00;100081.69;5064304;28;19916;-49
2023/08/02 01:14:57;;;;;;;;;;;;;;;14.60;100.00;100086.84;5044403;28;19928;-48
2023/08/02 01:17:26;;;;;;;;;;;;;;;14.63;100.00;100088.59;5065225;28;19995;-48
2023/08/02 01:19:51;;;;;;;;;;;;;;;14.66;100.00;100091.16;5062321;28;19933;-45
2023/08/02 01:22:17;;;;;;;;;;;;;;;14.71;100.00;100086.84;5043112;28;20279;-44
2023/08/02 01:24:42;;;;;;;;;;;;;;;14.74;100.00;100094.59;5064963;28;19916;-43
2023/08/02 01:27:09;;;;;;;;;;;;;;;14.77;100.00;100084.25;5060281;27;19917;-45
2023/08/02 01:29:37;;;;;;;;;;;;;;;14.79;100.00;100082.50;5060682;28;20019;-44
2023/08/02 01:32:03;;;;;;;;;;;;;;;14.82;100.00;100074.75;5060417;28;19923;-42
2023/08/02 01:34:29;;;;;;;;;;;;;;;14.86;100.00;100079.03;5065973;28;19925;-47
2023/08/02 01:36:54;;;;;;;;;;;;;;;14.89;100.00;100070.44;5062087;28;19931;-46
2023/08/02 01:39:19;;;;;;;;;;;;;;;14.91;100.00;100077.31;5063995;27;19920;-44
2023/08/02 01:41:45;;;;;;;;;;;;;;;14.95;100.00;100073.84;5065747;28;19931;-46
2023/08/02 01:44:10;;;;;;;;;;;;;;;15.01;100.00;100075.56;5061413;28;20397;-46
2023/08/02 01:46:35;;;;;;;;;;;;;;;15.02;100.00;100075.56;5073262;27;19955;-44
2023/08/02 01:49:00;;;;;;;;;;;;;;;15.02;100.00;100057.44;5064850;28;19945;-44
2023/08/02 01:51:26;;;;;;;;;;;;;;;15.04;100.00;100047.06;5060971;28;20007;-45
2023/08/02 01:53:51;;;;;;;;;;;;;;;15.06;100.00;100044.50;5066046;28;19920;-44
2023/08/02 01:56:17;;;;;;;;;;;;;;;15.07;100.00;100046.22;5063819;27;19966;-45
2023/08/02 01:58:42;;;;;;;;;;;;;;;15.08;100.00;100041.03;5065979;28;19912;-48
2023/08/02 02:01:07;;;;;;;;;;;;;;;15.10;100.00;100035.84;5062292;28;19968;-48
2023/08/02 02:03:32;;;;;;;;;;;;;;;15.10;100.00;100030.66;5062184;28;19921;-44
2023/08/02 02:05:58;;;;;;;;;;;;;;;15.13;100.00;100022.88;5062491;28;19924;-44
2023/08/02 02:08:23;;;;;;;;;;;;;;;15.10;100.00;100004.75;5064992;27;20290;-46
2023/08/02 02:10:52;;;;;;;;;;;;;;;15.09;100.00;100003.03;5064783;28;19924;-45
2023/08/02 02:13:18;;;;;;;;;;;;;;;15.08;100.00;99991.81;5063455;28;19955;-48
2023/08/02 02:15:43;;;;;;;;;;;;;;;15.07;100.00;99994.44;5062287;28;21116;-47
2023/08/02 02:18:08;;;;;;;;;;;;;;;15.05;100.00;99996.19;5061648;27;20007;-43
2023/08/02 02:20:34;;;;;;;;;;;;;;;15.02;100.00;99994.44;5065343;27;20396;-44
2023/08/02 02:22:59;;;;;;;;;;;;;;;15.02;100.00;99994.44;5034814;28;19943;-43
2023/08/02 02:25:24;;;;;;;;;;;;;;;15.01;100.00;99972.88;5063223;27;19924;-47
2023/08/02 02:27:50;;;;;;;;;;;;;;;15.01;100.00;99965.09;5063648;28;19928;-50
2023/08/02 02:30:15;;;;;;;;;;;;;;;15.02;100.00;99964.22;5061648;28;19924;-52
2023/08/02 02:32:40;;;;;;;;;;;;;;;15.03;100.00;99945.25;5063575;28;19952;-51
2023/08/02 02:35:06;;;;;;;;;;;;;;;15.04;100.00;99940.91;5061995;27;19924;-51
2023/08/02 02:37:31;;;;;;;;;;;;;;;15.06;100.00;99953.88;5060869;28;19933;-48
2023/08/02 02:39:56;;;;;;;;;;;;;;;15.06;100.00;99940.94;5064974;28;20390;-48
2023/08/02 02:42:21;;;;;;;;;;;;;;;15.08;100.00;99944.38;5064313;28;20283;-52
2023/08/02 02:44:47;;;;;;;;;;;;;;;15.08;100.00;99934.00;5041460;28;19932;-49
2023/08/02 02:47:12;;;;;;;;;;;;;;;15.09;100.00;99935.72;5063269;28;19931;-51
2023/08/02 02:49:37;;;;;;;;;;;;;;;15.07;100.00;99937.47;5061861;27;19927;-51
2023/08/02 02:52:03;;;;;;;;;;;;;;;15.07;100.00;99947.84;5059299;28;19931;-52
2023/08/02 02:54:28;;;;;;;;;;;;;;;15.09;100.00;99943.50;5060250;28;20011;-51
2023/08/02 02:56:54;;;;;;;;;;;;;;;15.11;100.00;99941.78;5063782;28;19924;-51
2023/08/02 02:59:19;;;;;;;;;;;;;;;15.10;100.00;99938.31;5058795;28;19917;-51
2023/08/02 03:01:45;;;;;;;;;;;;;;;15.11;100.00;99926.25;5063884;27;19917;-51
2023/08/02 03:04:10;;;;;;;;;;;;;;;15.12;100.00;99917.59;5058501;28;19947;-52
2023/08/02 03:06:35;;;;;;;;;;;;;;;15.10;100.00;99912.41;5062319;28;20370;-52
2023/08/02 03:09:00;;;;;;;;;;;;;;;15.12;100.00;99909.84;5061554;27;19962;-49
2023/08/02 03:11:26;;;;;;;;;;;;;;;15.13;100.00;99890.84;5050867;28;19920;-51
2023/08/02 03:13:51;;;;;;;;;;;;;;;15.13;100.00;99876.16;5052312;28;19921;-52
2023/08/02 03:16:16;;;;;;;;;;;;;;;15.13;100.00;99860.63;5051104;28;19927;-52
2023/08/02 03:18:41;;;;;;;;;;;;;;;15.15;100.00;99869.22;5053457;28;19966;-52
2023/08/02 03:21:07;;;;;;;;;;;;;;;15.16;100.00;99857.13;5052812;28;20042;-50
2023/08/02 03:23:34;;;;;;;;;;;;;;;15.15;100.00;99855.41;5053505;28;20394;-51
2023/08/02 03:25:59;;;;;;;;;;;;;;;15.18;100.00;99842.47;5051570;28;20032;-52
2023/08/02 03:28:24;;;;;;;;;;;;;;;15.17;100.00;99836.44;5052653;28;19920;-52
2023/08/02 03:30:49;;;;;;;;;;;;;;;15.20;100.00;99835.53;5054217;28;20020;-51
2023/08/02 03:33:14;;;;;;;;;;;;;;;15.22;100.00;99837.22;5052940;27;19967;-52
2023/08/02 03:35:40;;;;;;;;;;;;;;;15.21;100.00;99829.47;5032349;28;19932;-52
2023/08/02 03:38:05;;;;;;;;;;;;;;;15.21;100.00;99837.25;5054185;28;19932;-52
2023/08/02 03:40:30;;;;;;;;;;;;;;;15.23;100.00;99825.19;5065848;27;20397;-52
2023/08/02 03:42:55;;;;;;;;;;;;;;;15.23;100.00;99831.22;5050706;28;19993;-52
2023/08/02 03:45:21;;;;;;;;;;;;;;;15.23;100.00;99818.25;5049967;28;20015;-52
2023/08/02 03:47:46;;;;;;;;;;;;;;;15.23;100.00;99815.66;5050763;28;19971;-52
2023/08/02 03:50:11;;;;;;;;;;;;;;;15.25;100.00;99807.88;5052536;28;20427;-51
2023/08/02 03:52:36;;;;;;;;;;;;;;;15.26;100.00;99810.44;5052761;28;19928;-51
2023/08/02 03:55:02;;;;;;;;;;;;;;;15.26;100.00;99799.22;5052960;28;19980;-51
2023/08/02 03:57:27;;;;;;;;;;;;;;;15.27;100.00;99790.59;5060297;27;19921;-52
2023/08/02 03:59:52;;;;;;;;;;;;;;;15.27;100.00;99794.03;5058609;27;19928;-52
2023/08/02 04:02:18;;;;;;;;;;;;;;;15.29;100.00;99781.09;5050767;28;20457;-51
2023/08/02 04:04:43;;;;;;;;;;;;;;;15.33;100.00;99780.19;5056301;28;20012;-48
2023/08/02 04:07:09;;;;;;;;;;;;;;;15.33;100.00;99784.50;5058900;27;19971;-51
2023/08/02 04:09:35;;;;;;;;;;;;;;;15.33;100.00;99777.59;5061296;27;20481;-51
2023/08/02 04:12:00;;;;;;;;;;;;;;;15.34;100.00;99766.34;5064625;28;19985;-52
2023/08/02 04:14:25;;;;;;;;;;;;;;;15.34;100.00;99755.13;5065653;28;20453;-51
2023/08/02 04:16:50;;;;;;;;;;;;;;;15.32;100.00;99751.72;5066237;28;19979;-50
2023/08/02 04:19:16;;;;;;;;;;;;;;;15.33;100.00;99743.06;5062674;28;19924;-52
2023/08/02 04:21:41;;;;;;;;;;;;;;;15.31;100.00;99740.50;5064591;28;19920;-49
2023/08/02 04:24:06;;;;;;;;;;;;;;;15.32;100.00;99737.03;5061967;28;19921;-49
2023/08/02 04:26:32;;;;;;;;;;;;;;;15.33;100.00;99728.38;5062587;27;19925;-50
2023/08/02 04:28:57;;;;;;;;;;;;;;;15.31;100.00;99724.94;5061786;28;20484;-49
2023/08/02 04:31:22;;;;;;;;;;;;;;;15.36;100.00;99725.78;5061600;28;19921;-52
2023/08/02 04:33:48;;;;;;;;;;;;;;;15.30;100.00;99707.69;5062229;28;19925;-52
2023/08/02 04:36:13;;;;;;;;;;;;;;;15.31;100.00;99696.47;5059572;28;19925;-50
2023/08/02 04:38:38;;;;;;;;;;;;;;;15.30;100.00;99686.97;5074318;28;20005;-52
2023/08/02 04:41:04;;;;;;;;;;;;;;;15.31;100.00;99678.34;5066762;28;19946;-52
2023/08/02 04:43:29;;;;;;;;;;;;;;;15.31;100.00;99673.16;5064256;28;20053;-53
2023/08/02 04:45:54;;;;;;;;;;;;;;;15.31;100.00;99673.16;5062128;28;20015;-52
2023/08/02 04:48:20;;;;;;;;;;;;;;;15.31;100.00;99662.78;5063927;28;19919;-53
2023/08/02 04:50:45;;;;;;;;;;;;;;;15.32;100.00;99664.50;5045461;27;19928;-49
2023/08/02 04:53:10;;;;;;;;;;;;;;;15.34;100.00;99643.75;5065009;27;19916;-45
2023/08/02 04:55:42;;;;;;;;;;;;;;;15.34;100.00;99636.00;5062712;27;19931;-46
2023/08/02 04:58:08;;;;;;;;;;;;;;;15.34;100.00;99636.84;5062458;28;19944;-44
2023/08/02 05:00:33;;;;;;;;;;;;;;;15.36;100.00;99629.94;5063102;28;20468;-45
2023/08/02 05:02:58;;;;;;;;;;;;;;;15.33;100.00;99629.09;5068041;28;20007;-44
2023/08/02 05:05:23;;;;;;;;;;;;;;;15.33;100.00;99617.00;5062582;27;19913;-45
2023/08/02 05:07:49;;;;;;;;;;;;;;;15.31;100.00;99621.34;5066659;28;20367;-46
2023/08/02 05:10:14;;;;;;;;;;;;;;;15.35;100.00;99622.16;5049394;27;20417;-46
2023/08/02 05:12:39;;;;;;;;;;;;;;;15.35;100.00;99614.41;5039560;27;20324;-44
2023/08/02 05:15:05;;;;;;;;;;;;;;;15.35;100.00;99612.69;5061480;28;19925;-43
2023/08/02 05:17:30;;;;;;;;;;;;;;;15.34;100.00;99616.13;5063669;28;20424;-45
2023/08/02 05:19:56;;;;;;;;;;;;;;;15.36;100.00;99609.22;5063120;28;19932;-44
2023/08/02 05:22:21;;;;;;;;;;;;;;;15.37;100.00;99600.56;5061248;28;19916;-44
2023/08/02 05:24:46;;;;;;;;;;;;;;;15.35;100.00;99591.09;5063837;27;19942;-43
2023/08/02 05:27:11;;;;;;;;;;;;;;;15.33;100.00;99585.06;5062159;28;19924;-43
2023/08/02 05:29:37;;;;;;;;;;;;;;;15.28;100.00;99590.31;5061301;28;20353;-43
2023/08/02 05:32:02;;;;;;;;;;;;;;;15.25;100.00;99580.84;5059775;28;19949;-42
2023/08/02 05:34:27;;;;;;;;;;;;;;;15.24;100.00;99575.69;5058258;28;19928;-44
2023/08/02 05:36:53;;;;;;;;;;;;;;;15.21;100.00;99566.22;5060916;28;19985;-43
2023/08/02 05:39:18;;;;;;;;;;;;;;;15.20;100.00;99558.47;5063119;27;19928;-44
2023/08/02 05:41:43;;;;;;;;;;;;;;;15.19;100.00;99542.06;5063441;28;19928;-44
2023/08/02 05:44:08;;;;;;;;;;;;;;;15.20;100.00;99545.53;5064016;28;19920;-43
2023/08/02 05:46:34;;;;;;;;;;;;;;;15.18;100.00;99534.34;5060986;28;19921;-45
2023/08/02 05:48:59;;;;;;;;;;;;;;;15.16;100.00;99528.28;5066123;27;20589;-44
2023/08/02 05:51:24;;;;;;;;;;;;;;;15.17;100.00;99527.44;5062184;27;19960;-44
2023/08/02 05:53:49;;;;;;;;;;;;;;;15.16;100.00;99516.19;5064090;28;20438;-45
2023/08/02 05:56:15;;;;;;;;;;;;;;;15.17;100.00;99514.50;5059709;28;20007;-44
2023/08/02 05:58:40;;;;;;;;;;;;;;;15.16;100.00;99507.59;5061531;28;20319;-47
2023/08/02 06:01:05;;;;;;;;;;;;;;;15.14;100.00;99499.84;5061127;28;19943;-46
2023/08/02 06:03:30;;;;;;;;;;;;;;;15.15;100.00;99486.00;5065746;27;19924;-45
2023/08/02 06:05:56;;;;;;;;;;;;;;;15.15;100.00;99485.16;5054720;28;19925;-46
2023/08/02 06:08:21;;;;;;;;;;;;;;;15.14;100.00;99470.50;5053825;27;20439;-43
2023/08/02 06:10:46;;;;;;;;;;;;;;;15.13;100.00;99466.22;5050300;28;19929;-46
2023/08/02 06:13:12;;;;;;;;;;;;;;;15.13;100.00;99456.72;5052163;28;20248;-46
2023/08/02 06:15:37;;;;;;;;;;;;;;;15.14;100.00;99449.78;5054850;27;21779;-46
2023/08/02 06:18:02;;;;;;;;;;;;;;;15.16;100.00;99448.03;5052018;28;19928;-44
2023/08/02 06:20:28;;;;;;;;;;;;;;;15.17;100.00;99439.41;5052976;28;20008;-44
2023/08/02 06:22:53;;;;;;;;;;;;;;;15.17;100.00;99437.69;5053864;28;20348;-50
2023/08/02 06:25:18;;;;;;;;;;;;;;;15.21;100.00;99428.13;5053418;28;19928;-49
2023/08/02 06:27:43;;;;;;;;;;;;;;;15.20;100.00;99416.91;5035078;28;19956;-51
2023/08/02 06:30:09;;;;;;;;;;;;;;;15.17;100.00;99411.78;5055373;27;19925;-49
2023/08/02 06:32:34;;;;;;;;;;;;;;;15.15;100.00;99407.47;5053241;28;19965;-50
2023/08/02 06:34:59;;;;;;;;;;;;;;;15.17;100.00;99406.59;5054665;28;20021;-51
2023/08/02 06:37:25;;;;;;;;;;;;;;;15.18;100.00;99399.69;5052609;27;19929;-51
2023/08/02 06:39:50;;;;;;;;;;;;;;;15.17;100.00;99395.41;5056212;28;19925;-50
2023/08/02 06:42:15;;;;;;;;;;;;;;;15.19;100.00;99378.94;5057028;27;19981;-49
2023/08/02 06:44:40;;;;;;;;;;;;;;;15.19;100.00;99376.34;5062153;28;19921;-47
2023/08/02 06:47:06;;;;;;;;;;;;;;;15.19;100.00;99372.91;5063166;28;19979;-51
2023/08/02 06:49:33;;;;;;;;;;;;;;;15.18;100.00;99369.47;5055513;28;19924;-50
2023/08/02 06:51:58;;;;;;;;;;;;;;;15.19;100.00;99353.06;5063066;28;19917;-51
2023/08/02 06:54:23;;;;;;;;;;;;;;;15.24;100.00;99346.06;5045417;28;20343;-51
2023/08/02 06:56:49;;;;;;;;;;;;;;;15.26;100.00;99333.94;5055314;28;19925;-51
2023/08/02 06:59:14;;;;;;;;;;;;;;;15.26;100.00;99323.59;5061369;28;19959;-49
2023/08/02 07:01:39;;;;;;;;;;;;;;;15.27;100.00;99317.53;5061097;27;19952;-52
2023/08/02 07:04:04;;;;;;;;;;;;;;;15.28;100.00;99321.81;5064472;27;19981;-50
2023/08/02 07:06:30;;;;;;;;;;;;;;;15.28;100.00;99310.63;5056683;28;19927;-52
2023/08/02 07:08:56;;;;;;;;;;;;;;;15.26;100.00;99302.03;5054651;28;19921;-50
2023/08/02 07:11:21;;;;;;;;;;;;;;;15.26;100.00;99291.66;5059517;28;19917;-51
2023/08/02 07:13:47;;;;;;;;;;;;;;;15.26;100.00;99302.03;5059725;27;19969;-51
2023/08/02 07:16:12;;;;;;;;;;;;;;;15.29;100.00;99292.50;5054539;28;20011;-53
2023/08/02 07:18:38;;;;;;;;;;;;;;;15.32;100.00;99290.72;5059844;27;19972;-52
2023/08/02 07:21:06;;;;;;;;;;;;;;;15.27;100.00;99294.22;5056733;28;20275;-57
2023/08/02 07:23:32;;;;;;;;;;;;;;;15.31;100.00;99279.50;5057760;28;19924;-56
2023/08/02 07:25:57;;;;;;;;;;;;;;;15.31;100.00;99268.28;5056778;27;19926;-57
2023/08/02 07:28:22;;;;;;;;;;;;;;;15.32;100.00;99270.00;5057438;27;19996;-58
2023/08/02 07:30:48;;;;;;;;;;;;;;;15.35;100.00;99259.56;5060696;28;19920;-53
2023/08/02 07:33:13;;;;;;;;;;;;;;;15.35;100.00;99260.47;5059822;27;19920;-53
2023/08/02 07:35:38;;;;;;;;;;;;;;;15.35;100.00;99260.47;5061343;28;20013;-56
2023/08/02 07:38:03;;;;;;;;;;;;;;;15.36;100.00;99262.16;5059755;28;19952;-55
2023/08/02 07:40:29;;;;;;;;;;;;;;;15.40;100.00;99258.63;5060670;27;19960;-55
2023/08/02 07:42:54;;;;;;;;;;;;;;;15.42;100.00;99251.69;5057130;27;19936;-55
2023/08/02 07:45:19;;;;;;;;;;;;;;;15.44;100.00;99236.13;5059102;28;19938;-55
2023/08/02 07:47:44;;;;;;;;;;;;;;;15.48;100.00;99236.06;5060155;28;20683;-56
2023/08/02 07:50:10;;;;;;;;;;;;;;;15.56;100.00;99234.16;5063037;28;19921;-56
2023/08/02 07:52:36;;;;;;;;;;;;;;;15.62;100.00;99225.47;5057299;28;20373;-57
2023/08/02 07:55:01;;;;;;;;;;;;;;;15.68;100.00;99216.72;5054926;28;20064;-57
2023/08/02 07:57:29;;;;;;;;;;;;;;;15.75;100.00;99206.19;5027338;28;20323;-54
2023/08/02 07:59:56;;;;;;;;;;;;;;;15.80;100.00;99206.13;5064619;27;20369;-57
2023/08/02 08:02:21;;;;;;;;;;;;;;;15.87;100.00;99207.69;5066699;27;19949;-57
2023/08/02 08:04:47;;;;;;;;;;;;;;;15.87;100.00;99197.34;5063638;28;19924;-57
2023/08/02 08:07:12;;;;;;;;;;;;;;;15.87;100.00;99204.25;5061379;28;20016;-56
2023/08/02 08:09:37;;;;;;;;;;;;;;;15.91;100.00;99203.31;5062641;27;19924;-57
2023/08/02 08:12:03;;;;;;;;;;;;;;;15.91;100.00;99199.00;5056331;28;20398;-56
2023/08/02 08:14:29;;;;;;;;;;;;;;;15.92;100.00;99192.91;5061035;28;20435;-56
2023/08/02 08:16:56;;;;;;;;;;;;;;;15.99;100.00;99194.50;5059287;28;19917;-56
2023/08/02 08:19:22;;;;;;;;;;;;;;;16.02;100.00;99175.44;5058465;28;19916;-56
2023/08/02 08:21:47;;;;;;;;;;;;;;;16.03;100.00;99190.97;5064085;28;20287;-56
2023/08/02 08:24:12;;;;;;;;;;;;;;;16.06;100.00;99180.50;5060893;28;20007;-55
2023/08/02 08:26:38;;;;;;;;;;;;;;;16.12;100.00;99161.38;5061572;28;19921;-57
2023/08/02 08:29:04;;;;;;;;;;;;;;;16.19;100.00;99167.28;5059323;28;20009;-56
2023/08/02 08:31:29;;;;;;;;;;;;;;;16.19;100.00;99177.66;5063383;27;19920;-57
2023/08/02 08:33:54;;;;;;;;;;;;;;;16.21;100.00;99171.56;5041605;28;20276;-58
2023/08/02 08:36:21;;;;;;;;;;;;;;;16.24;100.00;99170.63;5059131;28;19926;-56
2023/08/02 08:38:46;;;;;;;;;;;;;;;16.30;100.00;99165.31;5056918;27;19937;-57
2023/08/02 08:41:13;;;;;;;;;;;;;;;16.33;100.00;99170.44;5058661;28;19921;-57
2023/08/02 08:43:38;;;;;;;;;;;;;;;16.38;100.00;99163.41;5041750;28;19920;-56
2023/08/02 08:46:03;;;;;;;;;;;;;;;16.43;100.00;99166.72;5054000;27;19917;-57
2023/08/02 08:48:30;;;;;;;;;;;;;;;16.46;100.00;99158.03;5061093;28;20394;-57
2023/08/02 08:50:56;;;;;;;;;;;;;;;16.51;100.00;99159.66;5062338;28;19921;-55
2023/08/02 08:53:23;;;;;;;;;;;;;;;16.68;100.00;99155.78;5065580;28;20378;-57
2023/08/02 08:55:49;;;;;;;;;;;;;;;16.76;100.00;99143.53;5065298;27;19924;-57
2023/08/02 08:58:15;;;;;;;;;;;;;;;16.89;100.00;99145.78;5066200;28;19917;-57
2023/08/02 09:00:42;;;;;;;;;;;;;;;17.05;100.00;99150.59;5063380;28;19927;-56
2023/08/02 09:03:08;;;;;;;;;;;;;;;17.35;100.00;99147.19;5064406;28;20406;-57
2023/08/02 09:05:34;;;;;;;;;;;;;;;17.61;100.00;99145.63;5064811;28;19928;-57
2023/08/02 09:07:59;;;;;;;;;;;;;;;17.90;100.00;99137.88;5064431;28;20368;-56
2023/08/02 09:10:28;;;;;;;;;;;;;;;18.06;100.00;99137.41;5045978;28;20008;-56
2023/08/02 09:12:53;;;;;;;;;;;;;;;18.12;100.00;99138.06;5063996;27;19954;-56
2023/08/02 09:15:18;;;;;;;;;;;;;;;18.18;100.00;99134.44;5064179;28;19983;-55
2023/08/02 09:17:46;;;;;;;;;;;;;;;18.22;100.00;99130.84;5061687;28;20429;-54
2023/08/02 09:20:11;;;;;;;;;;;;;;;18.32;100.00;99111.47;5066582;28;19916;-55
2023/08/02 09:22:36;;;;;;;;;;;;;;;18.46;100.00;99113.63;5064450;28;19931;-55
2023/08/02 09:25:04;;;;;;;;;;;;;;;18.64;100.00;99113.03;5066102;27;19923;-55
2023/08/02 09:27:30;;;;;;;;;;;;;;;18.73;100.00;99112.75;5064073;28;19920;-56
2023/08/02 09:29:55;;;;;;;;;;;;;;;18.75;100.00;99110.97;5061266;28;20280;-57
2023/08/02 09:32:21;;;;;;;;;;;;;;;18.89;100.00;99100.09;5061498;27;19921;-56
2023/08/02 09:34:50;;;;;;;;;;;;;;;19.06;100.00;99098.66;5046427;28;20324;-55
2023/08/02 09:37:27;;;;;;;;;;;;;;;19.12;100.00;99103.66;5064927;27;20068;-55
2023/08/02 09:39:52;;;;;;;;;;;;;;;19.18;100.00;99101.69;5062185;28;20388;-56
2023/08/02 09:42:21;;;;;;;;;;;;;;;19.20;100.00;99104.22;5064201;28;20036;-56
2023/08/02 09:44:54;;;;;;;;;;;;;;;19.19;100.00;99092.97;5062490;27;19984;-56
2023/08/02 09:47:20;;;;;;;;;;;;;;;19.16;100.00;99087.00;5063917;28;19913;-55
2023/08/02 09:50:00;;;;;;;;;;;;;;;19.16;100.00;99093.06;5062517;28;19942;-57
2023/08/02 09:52:26;;;;;;;;;;;;;;;19.22;100.00;99086.78;5044232;28;19912;-57
2023/08/02 09:54:51;;;;;;;;;;;;;;;19.29;100.00;99085.66;5059207;27;19930;-55
2023/08/02 09:57:16;;;;;;;;;;;;;;;19.37;100.00;99081.03;5065563;28;19971;-56
2023/08/02 09:59:42;;;;;;;;;;;;;;;19.42;100.00;99062.63;5031042;28;19924;-55
2023/08/02 10:02:08;;;;;;;;;;;;;;;19.56;100.00;99069.03;5064546;28;19965;-56
2023/08/02 10:04:34;;;;;;;;;;;;;;;19.70;100.00;99058.09;5064983;28;19924;-56
2023/08/02 10:07:03;;;;;;;;;;;;;;;19.85;100.00;99068.88;5062701;28;20009;-55
2023/08/02 10:09:30;;;;;;;;;;;;;;;19.93;100.00;99077.25;5066561;28;20021;-56
2023/08/02 10:12:07;;;;;;;;;;;;;;;20.07;100.00;99070.56;5062744;27;20092;-56
2023/08/02 10:14:33;;;;;;;;;;;;;;;20.16;100.00;99065.91;5065755;27;19921;-56
2023/08/02 10:17:00;;;;;;;;;;;;;;;20.33;100.00;99059.13;5061209;28;20330;-54
2023/08/02 10:19:26;;;;;;;;;;;;;;;20.40;100.00;99059.72;5058883;28;20483;-55
2023/08/02 10:21:52;;;;;;;;;;;;;;;20.47;100.00;99061.19;5059817;28;19916;-55
2023/08/02 10:24:17;;;;;;;;;;;;;;;20.53;100.00;99047.03;5031290;28;19946;-55
2023/08/02 10:26:43;;;;;;;;;;;;;;;20.55;100.00;99038.22;5062420;27;20045;-54
2023/08/02 10:29:09;;;;;;;;;;;;;;;20.65;100.00;99036.06;5062128;28;19924;-54
2023/08/02 10:31:35;;;;;;;;;;;;;;;20.65;100.00;99028.25;5064747;28;19921;-56
2023/08/02 10:34:00;;;;;;;;;;;;;;;20.82;100.00;99019.69;5062130;28;19931;-55
2023/08/02 10:36:25;;;;;;;;;;;;;;;20.88;100.00;99032.50;5062293;27;19924;-55
2023/08/02 10:38:54;;;;;;;;;;;;;;;20.79;100.00;99017.19;5062471;28;19916;-57
2023/08/02 10:41:21;;;;;;;;;;;;;;;20.68;100.00;99017.66;5064344;27;19921;-56
2023/08/02 10:43:56;;;;;;;;;;;;;;;20.60;100.00;99022.34;5064791;28;20012;-57
2023/08/02 10:46:28;;;;;;;;;;;;;;;20.51;100.00;99012.31;5064843;28;19993;-56
2023/08/02 10:48:55;;;;;;;;;;;;;;;20.41;100.00;99009.19;5061075;28;20002;-56
2023/08/02 10:51:26;;;;;;;;;;;;;;;20.33;100.00;98999.06;5057405;28;20021;-57
2023/08/02 10:54:13;;;;;;;;;;;;;;;20.28;100.00;98997.56;5060593;28;19912;-56
2023/08/02 10:56:51;;;;;;;;;;;;;;;20.17;100.00;99003.22;5044989;27;20334;-57
2023/08/02 10:59:36;;;;;;;;;;;;;;;20.08;100.00;99008.78;5046136;28;19920;-57
2023/08/02 11:02:07;;;;;;;;;;;;;;;20.00;100.00;98998.69;5062682;28;19924;-56
2023/08/02 11:04:32;;;;;;;;;;;;;;;19.95;100.00;98990.19;5063141;28;20012;-55
2023/08/02 11:07:13;;;;;;;;;;;;;;;19.97;100.00;99003.19;5063182;27;20016;-56
2023/08/02 11:09:39;;;;;;;;;;;;;;;19.86;100.00;98993.16;5061450;28;19986;-55
2023/08/02 11:12:09;;;;;;;;;;;;;;;19.87;100.00;98986.19;5062855;27;19917;-53
2023/08/02 11:14:34;;;;;;;;;;;;;;;19.85;100.00;98999.31;5062736;27;19925;-55
2023/08/02 11:17:00;;;;;;;;;;;;;;;19.75;100.00;98983.16;5063373;28;19924;-57
2023/08/02 11:19:28;;;;;;;;;;;;;;;19.46;100.00;98996.44;5044162;28;19920;-57
2023/08/02 11:21:54;;;;;;;;;;;;;;;19.18;100.00;99007.03;5057235;28;20402;-55
2023/08/02 11:24:19;;;;;;;;;;;;;;;18.93;100.00;99015.75;5058694;28;20001;-50
2023/08/02 11:26:52;;;;;;;;;;;;;;;18.65;100.00;99007.16;5064237;27;19968;-49
2023/08/02 11:29:20;;;;;;;;;;;;;;;18.38;100.00;98995.91;5062966;28;19923;-52
2023/08/02 11:31:45;;;;;;;;;;;;;;;18.21;100.00;98993.88;5060309;28;19924;-53
2023/08/02 11:34:15;;;;;;;;;;;;;;;18.22;100.00;98983.41;5063852;27;19969;-55
2023/08/02 11:36:40;;;;;;;;;;;;;;;18.31;100.00;98982.25;5060271;28;19924;-55
2023/08/02 11:39:06;;;;;;;;;;;;;;;18.57;100.00;98967.53;5060975;28;20267;-56
2023/08/02 11:41:31;;;;;;;;;;;;;;;18.80;100.00;98958.91;5062496;27;19928;-58
2023/08/02 11:43:56;;;;;;;;;;;;;;;19.07;100.00;98957.09;5054649;28;20283;-55
2023/08/02 11:46:24;;;;;;;;;;;;;;;19.30;100.00;98957.09;5059107;28;19942;-54
2023/08/02 11:48:50;;;;;;;;;;;;;;;19.45;100.00;98964.31;5060767;27;19959;-54
2023/08/02 11:51:16;;;;;;;;;;;;;;;19.53;100.00;98962.25;5060484;28;20374;-54
2023/08/02 11:53:54;;;;;;;;;;;;;;;19.65;100.00;98957.50;5062176;27;19992;-53
2023/08/02 11:56:20;;;;;;;;;;;;;;;19.95;100.00;98964.09;5055849;28;20009;-56
2023/08/02 11:58:45;;;;;;;;;;;;;;;20.14;100.00;98961.56;5059798;28;19960;-54
2023/08/02 12:01:12;;;;;;;;;;;;;;;20.09;100.00;98961.78;5061878;27;19917;-53
2023/08/02 12:03:37;;;;;;;;;;;;;;;19.95;100.00;98958.03;5064050;28;19933;-52
2023/08/02 12:06:03;;;;;;;;;;;;;;;19.74;100.00;98978.84;5062018;28;20389;-53
2023/08/02 12:08:28;;;;;;;;;;;;;;;19.69;100.00;98957.31;5063026;27;20283;-54
2023/08/02 12:10:53;;;;;;;;;;;;;;;19.71;100.00;98959.84;5058756;27;19921;-54
2023/08/02 12:13:19;;;;;;;;;;;;;;;19.84;100.00;98968.91;5061211;28;19963;-56
2023/08/02 12:15:56;;;;;;;;;;;;;;;19.87;100.00;98962.72;5060441;28;19928;-55
2023/08/02 12:18:21;;;;;;;;;;;;;;;19.79;100.00;98958.66;5061633;28;19922;-55
2023/08/02 12:20:48;;;;;;;;;;;;;;;19.90;100.00;98949.53;5058779;28;20023;-55
2023/08/02 12:23:27;;;;;;;;;;;;;;;19.97;100.00;98951.84;5061451;28;19977;-59
2023/08/02 12:25:53;;;;;;;;;;;;;;;19.97;100.00;98949.25;5056286;27;20650;-58
2023/08/02 12:28:18;;;;;;;;;;;;;;;20.00;100.00;98950.88;5064980;28;19927;-57
2023/08/02 12:30:59;;;;;;;;;;;;;;;20.02;100.00;98959.47;5064428;28;19989;-58